createdAt,value
2023-01-30T00:00:08.873Z,1.63
2023-01-30T00:02:52.939Z,2.09
2023-01-30T00:05:36.830Z,2.00
2023-01-30T00:08:20.894Z,1.92
2023-01-30T00:11:06.318Z,2.08
2023-01-30T00:13:52.544Z,2.00
2023-01-30T00:16:36.665Z,2.08
2023-01-30T00:19:20.547Z,2.21
2023-01-30T00:22:04.320Z,2.06
2023-01-30T00:24:48.278Z,2.17
2023-01-30T00:27:32.292Z,2.16
2023-01-30T00:30:17.961Z,2.28
2023-01-30T00:33:02.275Z,2.30
2023-01-30T00:35:47.024Z,2.26
2023-01-30T00:38:30.899Z,2.14
2023-01-30T00:41:15.443Z,2.13
2023-01-30T00:44:16.600Z,2.08
2023-01-30T00:47:09.000Z,1.82
2023-01-30T00:49:52.886Z,2.00
2023-01-30T00:52:36.733Z,2.14
2023-01-30T00:55:20.507Z,2.06
2023-01-30T00:58:04.302Z,2.03
2023-01-30T01:00:48.508Z,1.86
2023-01-30T01:03:33.720Z,1.74
2023-01-30T01:06:17.709Z,2.10
2023-01-30T01:09:02.658Z,2.10
2023-01-30T01:11:46.785Z,2.23
2023-01-30T01:14:30.944Z,2.29
2023-01-30T01:17:16.327Z,2.33
2023-01-30T01:20:01.536Z,2.41
2023-01-30T01:22:49.732Z,2.32
2023-01-30T01:25:33.599Z,2.15
2023-01-30T01:28:21.702Z,2.21
2023-01-30T01:31:10.652Z,2.26
2023-01-30T01:33:54.516Z,2.37
2023-01-30T01:36:55.589Z,2.34
2023-01-30T01:39:57.204Z,2.28
2023-01-30T01:42:41.363Z,2.18
2023-01-30T01:45:26.075Z,2.34
2023-01-30T01:48:15.867Z,2.22
2023-01-30T01:51:06.770Z,2.17
2023-01-30T01:53:57.614Z,2.15
2023-01-30T01:56:45.992Z,2.25
2023-01-30T01:59:36.185Z,2.23
2023-01-30T02:02:21.714Z,2.26
2023-01-30T02:05:11.216Z,2.11
2023-01-30T02:08:01.882Z,2.04
2023-01-30T02:10:54.480Z,2.18
2023-01-30T02:13:38.290Z,1.89
2023-01-30T02:16:22.205Z,1.83
2023-01-30T02:19:25.332Z,1.99
2023-01-30T02:22:22.782Z,2.18
2023-01-30T02:25:43.499Z,1.67
2023-01-30T02:28:53.694Z,1.77
2023-01-30T02:31:46.652Z,1.46
2023-01-30T02:34:43.960Z,1.45
2023-01-30T02:37:41.974Z,1.64
2023-01-30T02:40:40.773Z,1.50
2023-01-30T02:43:32.453Z,1.34
2023-01-30T02:46:22.388Z,1.33
2023-01-30T02:49:11.838Z,1.34
2023-01-30T02:51:59.284Z,1.52
2023-01-30T02:54:43.386Z,1.23
2023-01-30T02:57:28.018Z,1.20
2023-01-30T03:00:21.193Z,1.66
2023-01-30T03:03:33.060Z,1.70
2023-01-30T03:06:41.139Z,0.87
2023-01-30T03:09:36.877Z,1.14
2023-01-30T03:12:33.421Z,1.41
2023-01-30T03:15:23.618Z,1.52
2023-01-30T03:18:08.350Z,1.38
2023-01-30T03:20:52.670Z,1.39
2023-01-30T03:23:37.932Z,1.64
2023-01-30T03:26:27.464Z,1.54
2023-01-30T03:29:11.332Z,1.39
2023-01-30T03:31:55.206Z,1.43
2023-01-30T03:34:39.110Z,1.04
2023-01-30T03:37:22.949Z,1.16
2023-01-30T03:40:09.953Z,1.17
2023-01-30T03:42:54.811Z,0.90
2023-01-30T03:45:38.751Z,0.91
2023-01-30T03:48:22.868Z,0.62
2023-01-30T03:51:07.302Z,0.66
2023-01-30T03:53:51.170Z,0.69
2023-01-30T03:56:36.424Z,0.86
2023-01-30T03:59:20.451Z,1.08
2023-01-30T04:02:10.731Z,0.95
2023-01-30T04:04:54.761Z,1.37
2023-01-30T04:07:38.843Z,1.05
2023-01-30T04:10:22.779Z,1.03
2023-01-30T04:13:07.938Z,1.29
2023-01-30T04:15:51.822Z,1.44
2023-01-30T04:18:55.614Z,1.27
2023-01-30T04:21:42.035Z,1.14
2023-01-30T04:24:25.908Z,1.38
2023-01-30T04:27:10.510Z,1.37
2023-01-30T04:30:04.082Z,1.40
2023-01-30T04:32:48.576Z,0.89
2023-01-30T04:35:32.602Z,0.65
2023-01-30T04:38:16.547Z,0.37
2023-01-30T04:41:01.181Z,0.81
2023-01-30T04:43:47.358Z,1.02
2023-01-30T04:46:47.814Z,1.31
2023-01-30T04:49:32.505Z,1.46
2023-01-30T04:52:17.541Z,1.48
2023-01-30T04:55:01.458Z,1.17
2023-01-30T04:57:47.035Z,1.22
2023-01-30T05:00:31.033Z,1.30
2023-01-30T05:03:18.927Z,1.28
2023-01-30T05:06:02.824Z,1.45
2023-01-30T05:08:49.764Z,1.57
2023-01-30T05:11:33.729Z,1.67
2023-01-30T05:14:17.786Z,1.43
2023-01-30T05:17:01.766Z,1.51
2023-01-30T05:19:47.255Z,1.55
2023-01-30T05:22:31.226Z,1.58
2023-01-30T05:25:16.141Z,1.43
2023-01-30T05:28:00.424Z,1.66
2023-01-30T05:30:46.290Z,1.60
2023-01-30T05:33:31.119Z,1.52
2023-01-30T05:36:17.885Z,1.60
2023-01-30T05:39:01.696Z,1.66
2023-01-30T05:41:45.673Z,1.74
2023-01-30T05:44:29.591Z,1.86
2023-01-30T05:47:13.483Z,1.90
2023-01-30T05:49:57.401Z,1.98
2023-01-30T05:52:42.573Z,1.58
2023-01-30T05:55:26.538Z,1.26
2023-01-30T05:58:10.423Z,1.36
2023-01-30T06:00:54.374Z,1.09
2023-01-30T06:03:38.231Z,1.08
2023-01-30T06:06:22.730Z,1.19
2023-01-30T06:09:07.904Z,0.96
2023-01-30T06:11:53.256Z,1.27
2023-01-30T06:14:37.172Z,0.83
2023-01-30T06:17:20.973Z,1.12
2023-01-30T06:20:05.271Z,1.31
2023-01-30T06:22:49.451Z,1.49
2023-01-30T06:25:34.693Z,1.61
2023-01-30T06:28:20.061Z,1.05
2023-01-30T06:31:04.121Z,1.39
2023-01-30T06:33:49.441Z,1.29
2023-01-30T06:36:33.607Z,1.67
2023-01-30T06:39:17.431Z,1.89
2023-01-30T06:42:02.635Z,1.92
2023-01-30T06:44:46.565Z,2.12
2023-01-30T06:47:30.521Z,2.30
2023-01-30T06:50:16.058Z,2.27
2023-01-30T06:52:59.973Z,2.50
2023-01-30T06:55:43.864Z,2.46
2023-01-30T06:58:29.244Z,2.43
2023-01-30T07:01:13.161Z,2.66
2023-01-30T07:03:57.043Z,2.55
2023-01-30T07:06:40.888Z,2.64
2023-01-30T07:09:24.791Z,2.53
2023-01-30T07:12:08.657Z,2.49
2023-01-30T07:14:54.227Z,2.61
2023-01-30T07:17:38.065Z,2.33
2023-01-30T07:20:21.813Z,2.40
2023-01-30T07:23:05.869Z,2.20
2023-01-30T07:25:49.696Z,2.21
2023-01-30T07:28:33.480Z,2.11
2023-01-30T07:31:19.013Z,2.09
2023-01-30T07:34:03.024Z,2.14
2023-01-30T07:36:47.002Z,2.14
2023-01-30T07:39:30.974Z,2.29
2023-01-30T07:42:15.054Z,2.30
2023-01-30T07:44:58.989Z,2.22
2023-01-30T07:47:44.585Z,2.04
2023-01-30T07:50:28.845Z,2.10
2023-01-30T07:53:14.715Z,2.35
2023-01-30T07:55:59.563Z,2.60
2023-01-30T07:58:43.436Z,2.65
2023-01-30T08:01:27.593Z,2.11
2023-01-30T08:04:13.159Z,2.75
2023-01-30T08:06:57.565Z,2.88
2023-01-30T08:09:41.620Z,2.93
2023-01-30T08:12:25.639Z,3.05
2023-01-30T08:15:10.715Z,2.97
2023-01-30T08:17:56.529Z,3.12
2023-01-30T08:20:42.940Z,3.46
2023-01-30T08:23:27.011Z,3.26
2023-01-30T08:26:11.100Z,3.50
2023-01-30T08:28:56.090Z,3.74
2023-01-30T08:31:40.143Z,3.96
2023-01-30T08:34:24.179Z,4.03
2023-01-30T08:37:09.669Z,3.96
2023-01-30T08:39:53.666Z,3.82
2023-01-30T08:42:37.833Z,3.26
2023-01-30T08:45:21.872Z,3.48
2023-01-30T08:48:07.589Z,3.87
2023-01-30T08:50:53.347Z,3.76
2023-01-30T08:53:38.742Z,4.24
2023-01-30T08:56:22.771Z,4.43
2023-01-30T08:59:07.934Z,4.57
2023-01-30T09:01:52.004Z,4.95
2023-01-30T09:04:36.159Z,5.51
2023-01-30T09:07:20.327Z,5.56
2023-01-30T09:10:06.710Z,5.53
2023-01-30T09:12:51.095Z,4.98
2023-01-30T09:15:35.135Z,5.12
2023-01-30T09:18:19.036Z,5.11
2023-01-30T09:21:07.504Z,5.96
2023-01-30T09:23:51.513Z,5.22
2023-01-30T09:26:36.764Z,4.97
2023-01-30T09:29:20.669Z,4.85
2023-01-30T09:32:04.883Z,4.96
2023-01-30T09:34:48.627Z,4.85
2023-01-30T09:37:32.606Z,5.27
2023-01-30T09:40:18.856Z,5.24
2023-01-30T09:43:20.911Z,5.03
2023-01-30T09:46:22.261Z,4.52
2023-01-30T09:49:14.490Z,4.40
2023-01-30T09:52:10.566Z,4.67
2023-01-30T09:55:01.778Z,4.69
2023-01-30T09:57:49.148Z,4.89
2023-01-30T10:00:37.288Z,5.01
2023-01-30T10:03:24.737Z,5.06
2023-01-30T10:06:12.625Z,5.00
2023-01-30T10:09:04.535Z,5.68
2023-01-30T10:12:02.045Z,6.06
2023-01-30T10:15:14.858Z,5.63
2023-01-30T10:18:27.175Z,5.65
2023-01-30T10:21:21.882Z,5.79
2023-01-30T10:24:19.817Z,5.50
2023-01-30T10:27:05.049Z,5.53
2023-01-30T10:29:53.858Z,5.61
2023-01-30T10:32:45.433Z,6.14
2023-01-30T10:35:35.350Z,6.23
2023-01-30T10:38:23.039Z,6.32
2023-01-30T10:41:15.702Z,5.61
2023-01-30T10:44:04.386Z,6.17
2023-01-30T10:47:03.083Z,6.30
2023-01-30T10:49:53.083Z,6.49
2023-01-30T10:52:46.815Z,5.99
2023-01-30T10:55:38.680Z,6.30
2023-01-30T10:58:31.169Z,6.04
2023-01-30T11:01:21.079Z,6.04
2023-01-30T11:04:22.948Z,6.59
2023-01-30T11:07:07.462Z,5.88
2023-01-30T11:09:52.678Z,6.11
2023-01-30T11:12:36.528Z,6.04
2023-01-30T11:15:22.203Z,6.45
2023-01-30T11:18:50.903Z,5.99
2023-01-30T11:21:22.268Z,6.24
2023-01-30T11:24:17.177Z,5.95
2023-01-30T11:27:12.347Z,6.23
2023-01-30T11:30:06.034Z,5.82
2023-01-30T11:32:50.909Z,5.88
2023-01-30T11:35:45.542Z,5.32
2023-01-30T11:38:31.643Z,5.67
2023-01-30T11:41:21.377Z,5.10
2023-01-30T11:44:06.958Z,4.84
2023-01-30T11:46:50.889Z,5.60
2023-01-30T11:49:47.178Z,5.15
2023-01-30T11:52:38.110Z,4.98
2023-01-30T11:55:22.742Z,4.94
2023-01-30T11:58:10.829Z,4.77
2023-01-30T12:00:56.068Z,5.08
2023-01-30T12:03:48.660Z,5.42
2023-01-30T12:06:34.410Z,4.92
2023-01-30T12:09:33.604Z,4.98
2023-01-30T12:12:30.498Z,5.40
2023-01-30T12:15:24.563Z,5.45
2023-01-30T12:18:17.644Z,5.75
2023-01-30T12:21:03.255Z,6.00
2023-01-30T12:23:54.113Z,5.30
2023-01-30T12:26:45.692Z,5.39
2023-01-30T12:29:32.669Z,5.28
2023-01-30T12:32:20.199Z,5.83
2023-01-30T12:35:17.072Z,5.85
2023-01-30T12:38:09.234Z,5.84
2023-01-30T12:41:03.780Z,5.71
2023-01-30T12:44:00.879Z,5.68
2023-01-30T12:46:57.480Z,5.87
2023-01-30T12:50:00.053Z,5.53
2023-01-30T12:53:03.558Z,5.05
2023-01-30T12:55:57.312Z,4.89
2023-01-30T12:58:46.697Z,5.03
2023-01-30T13:01:40.538Z,5.03
2023-01-30T13:04:37.566Z,4.82
2023-01-30T13:07:33.897Z,4.69
2023-01-30T13:10:25.365Z,4.61
2023-01-30T13:13:19.180Z,4.17
2023-01-30T13:16:10.520Z,4.21
2023-01-30T13:18:59.007Z,4.60
2023-01-30T13:21:50.872Z,4.78
2023-01-30T13:24:48.222Z,4.57
2023-01-30T13:27:38.286Z,4.24
2023-01-30T13:30:25.626Z,4.23
2023-01-30T13:33:14.818Z,4.01
2023-01-30T13:36:07.859Z,3.88
2023-01-30T13:39:05.620Z,4.54
2023-01-30T13:41:57.489Z,4.13
2023-01-30T13:44:44.896Z,4.53
2023-01-30T13:47:42.147Z,4.23
2023-01-30T13:50:54.373Z,4.15
2023-01-30T13:53:43.867Z,4.25
2023-01-30T13:56:41.950Z,3.56
2023-01-30T13:59:42.179Z,3.86
2023-01-30T14:02:27.651Z,4.32
2023-01-30T14:05:11.548Z,3.80
2023-01-30T14:07:55.355Z,4.06
2023-01-30T14:10:39.178Z,3.91
2023-01-30T14:13:24.756Z,3.73
2023-01-30T14:16:09.093Z,3.75
2023-01-30T14:18:54.312Z,3.76
2023-01-30T14:21:38.593Z,3.59
2023-01-30T14:24:25.116Z,4.07
2023-01-30T14:27:27.537Z,4.06
2023-01-30T14:30:37.361Z,3.71
2023-01-30T14:33:51.383Z,3.82
2023-01-30T14:36:38.284Z,3.56
2023-01-30T14:39:55.681Z,3.28
2023-01-30T14:42:39.485Z,3.23
2023-01-30T14:45:46.267Z,2.96
2023-01-30T14:48:32.576Z,3.04
2023-01-30T14:51:23.946Z,3.26
2023-01-30T14:54:25.491Z,2.98
2023-01-30T14:57:22.198Z,3.01
2023-01-30T15:00:18.822Z,2.85
2023-01-30T15:03:08.492Z,2.61
2023-01-30T15:05:52.573Z,2.81
2023-01-30T15:08:41.911Z,2.96
2023-01-30T15:11:33.144Z,3.06
2023-01-30T15:14:23.735Z,3.20
2023-01-30T15:17:23.106Z,2.28
2023-01-30T15:20:33.688Z,2.53
2023-01-30T15:23:44.176Z,2.37
2023-01-30T15:26:42.636Z,2.55
2023-01-30T15:30:04.380Z,2.35
2023-01-30T15:32:50.040Z,2.60
2023-01-30T15:35:33.858Z,2.98
2023-01-30T15:38:26.943Z,2.84
2023-01-30T15:41:11.878Z,2.89
2023-01-30T15:44:20.553Z,2.25
2023-01-30T15:47:21.791Z,2.62
2023-01-30T15:50:08.584Z,2.70
2023-01-30T15:52:56.597Z,2.88
2023-01-30T15:55:40.509Z,3.15
2023-01-30T15:58:25.711Z,3.15
2023-01-30T16:01:15.456Z,2.88
2023-01-30T16:04:00.521Z,2.57
2023-01-30T16:06:44.352Z,2.20
2023-01-30T16:09:28.240Z,3.02
2023-01-30T16:12:25.734Z,3.22
2023-01-30T16:18:33.904Z,2.83
2023-01-30T16:21:20.975Z,3.01
2023-01-30T16:24:08.160Z,2.61
2023-01-30T16:26:56.283Z,2.29
2023-01-30T16:29:53.087Z,2.46
2023-01-30T16:32:38.944Z,2.58
2023-01-30T16:35:34.271Z,2.48
2023-01-30T16:38:38.745Z,1.97
2023-01-30T16:41:34.286Z,2.48
2023-01-30T16:44:20.456Z,2.44
2023-01-30T16:47:06.263Z,2.55
2023-01-30T16:49:52.848Z,2.64
2023-01-30T16:52:45.569Z,2.60
2023-01-30T16:55:29.557Z,2.64
2023-01-30T16:58:18.901Z,2.56
2023-01-30T17:01:05.262Z,2.48
2023-01-30T17:04:01.727Z,1.78
2023-01-30T17:06:50.096Z,2.40
2023-01-30T17:09:43.017Z,2.00
2023-01-30T17:12:48.471Z,2.31
2023-01-30T17:15:39.265Z,2.37
2023-01-30T17:18:23.092Z,2.34
2023-01-30T17:21:06.903Z,2.42
2023-01-30T17:23:54.514Z,1.96
2023-01-30T17:26:40.935Z,2.28
2023-01-30T17:29:41.597Z,2.38
2023-01-30T17:32:26.381Z,1.91
2023-01-30T17:35:10.617Z,2.35
2023-01-30T17:38:04.816Z,2.42
2023-01-30T17:40:50.095Z,2.11
2023-01-30T17:43:35.273Z,2.10
2023-01-30T17:46:20.038Z,2.09
2023-01-30T17:49:04.547Z,2.24
2023-01-30T17:51:49.121Z,2.23
2023-01-30T17:54:33.122Z,2.47
2023-01-30T17:57:17.082Z,2.06
2023-01-30T18:00:02.300Z,2.51
2023-01-30T18:02:54.256Z,2.55
2023-01-30T18:05:38.072Z,2.31
2023-01-30T18:08:24.959Z,2.32
2023-01-30T18:11:11.870Z,2.17
2023-01-30T18:13:55.745Z,2.27
2023-01-30T18:16:41.426Z,2.21
2023-01-30T18:19:25.260Z,2.11
2023-01-30T18:22:10.693Z,2.18
2023-01-30T18:24:54.525Z,2.09
2023-01-30T18:27:38.420Z,1.86
2023-01-30T18:30:25.104Z,1.64
2023-01-30T18:33:10.339Z,1.78
2023-01-30T18:35:56.239Z,1.40
2023-01-30T18:38:39.984Z,1.67
2023-01-30T18:41:25.266Z,1.58
2023-01-30T18:44:09.105Z,1.44
2023-01-30T18:46:52.875Z,1.55
2023-01-30T18:49:38.383Z,1.28
2023-01-30T18:52:23.809Z,1.26
2023-01-30T18:55:08.164Z,1.24
2023-01-30T18:57:52.143Z,0.86
2023-01-30T19:00:35.958Z,0.90
2023-01-30T19:03:19.830Z,1.01
2023-01-30T19:06:05.625Z,0.89
2023-01-30T19:08:49.469Z,0.94
2023-01-30T19:11:53.022Z,1.15
2023-01-30T19:14:43.002Z,0.98
2023-01-30T19:17:27.012Z,1.03
2023-01-30T19:20:14.799Z,1.09
2023-01-30T19:23:00.005Z,1.05
2023-01-30T19:25:44.043Z,0.81
2023-01-30T19:28:28.244Z,0.93
2023-01-30T19:31:17.284Z,0.77
2023-01-30T19:34:02.968Z,0.64
2023-01-30T19:36:48.223Z,0.83
2023-01-30T19:39:33.499Z,0.72
2023-01-30T19:42:19.673Z,0.79
2023-01-30T19:45:03.904Z,0.75
2023-01-30T19:47:48.011Z,0.53
2023-01-30T19:50:32.990Z,0.73
2023-01-30T19:53:16.805Z,0.58
2023-01-30T19:56:04.050Z,0.45
2023-01-30T19:58:50.733Z,0.44
2023-01-30T20:01:37.688Z,0.42
2023-01-30T20:04:21.585Z,0.13
2023-01-30T20:07:05.592Z,0.31
2023-01-30T20:09:49.518Z,0.29
2023-01-30T20:12:36.139Z,-0.10
2023-01-30T20:15:20.175Z,-0.15
2023-01-30T20:18:04.332Z,-0.30
2023-01-30T20:20:48.403Z,-0.09
2023-01-30T20:23:32.392Z,-0.08
2023-01-30T20:26:18.802Z,-0.01
2023-01-30T20:29:07.494Z,-0.07
2023-01-30T20:31:54.006Z,-0.35
2023-01-30T20:34:38.013Z,-0.39
2023-01-30T20:37:22.056Z,0.01
2023-01-30T20:40:07.016Z,-0.31
2023-01-30T20:42:51.035Z,-0.30
2023-01-30T20:45:36.533Z,-0.28
2023-01-30T20:48:20.453Z,-0.31
2023-01-30T20:51:05.475Z,-0.34
2023-01-30T20:53:54.466Z,-0.12
2023-01-30T20:56:40.021Z,-0.44
2023-01-30T20:59:27.335Z,-0.22
2023-01-30T21:02:12.903Z,-0.19
2023-01-30T21:04:56.995Z,-0.51
2023-01-30T21:07:41.218Z,-0.37
2023-01-30T21:10:25.244Z,-0.72
2023-01-30T21:13:10.822Z,-0.91
2023-01-30T21:16:02.819Z,-0.72
2023-01-30T21:18:49.691Z,-0.76
2023-01-30T21:21:37.008Z,-0.58
2023-01-30T21:24:24.004Z,-0.58
2023-01-30T21:27:08.059Z,-0.71
2023-01-30T21:29:52.286Z,-1.28
2023-01-30T21:32:36.734Z,-0.84
2023-01-30T21:35:22.206Z,-0.87
2023-01-30T21:38:23.887Z,-0.87
2023-01-30T21:41:23.717Z,-0.80
2023-01-30T21:44:10.166Z,-1.05
2023-01-30T21:46:54.144Z,-1.23
2023-01-30T21:49:38.166Z,-0.98
2023-01-30T21:52:23.593Z,-1.41
2023-01-30T21:55:08.171Z,-1.28
2023-01-30T21:57:52.520Z,-1.22
2023-01-30T22:00:36.948Z,-1.22
2023-01-30T22:03:21.001Z,-0.99
2023-01-30T22:06:07.771Z,-1.05
2023-01-30T22:08:56.776Z,-1.92
2023-01-30T22:11:40.720Z,-1.67
2023-01-30T22:14:24.760Z,-1.60
2023-01-30T22:17:08.808Z,-1.73
2023-01-30T22:19:52.987Z,-1.70
2023-01-30T22:22:37.301Z,-1.56
2023-01-30T22:25:22.932Z,-1.49
2023-01-30T22:28:09.345Z,-1.63
2023-01-30T22:30:54.156Z,-1.44
2023-01-30T22:33:38.620Z,-1.38
2023-01-30T22:36:25.422Z,-1.21
2023-01-30T22:39:09.515Z,-1.30
2023-01-30T22:41:55.043Z,-1.44
2023-01-30T22:44:39.893Z,-1.52
2023-01-30T22:47:23.872Z,-1.63
2023-01-30T22:50:08.449Z,-1.75
2023-01-30T22:52:52.447Z,-1.65
2023-01-30T22:55:39.260Z,-1.79
2023-01-30T22:58:24.896Z,-1.78
2023-01-30T23:01:10.584Z,-1.62
2023-01-30T23:03:56.713Z,-1.27
2023-01-30T23:06:40.736Z,-1.37
2023-01-30T23:09:25.090Z,-1.44
2023-01-30T23:12:26.513Z,-1.61
2023-01-30T23:15:12.790Z,-1.63
2023-01-30T23:18:14.324Z,-1.75
2023-01-30T23:20:58.443Z,-1.81
2023-01-30T23:23:42.910Z,-1.71
2023-01-30T23:26:29.242Z,-1.83
2023-01-30T23:29:15.052Z,-1.73
2023-01-30T23:32:02.396Z,-2.20
2023-01-30T23:34:46.216Z,-2.08
2023-01-30T23:37:43.898Z,-1.92
2023-01-30T23:40:27.773Z,-1.99
2023-01-30T23:43:11.805Z,-2.12
2023-01-30T23:45:56.009Z,-2.07
2023-01-30T23:48:41.247Z,-2.02
2023-01-30T23:51:27.376Z,-1.96
2023-01-30T23:54:12.041Z,-1.92
2023-01-30T23:56:56.135Z,-2.02
2023-01-30T23:59:39.851Z,-1.92
